Time;durP1;ratioP1;P1;durP2;ratioP2;P2;SDS_P1;SDS_P2;PMS_P1;PMS_P2;Temp;Humidity;BMP_temperature;BMP_pressure;BME280_temperature;BME280_humidity;BME280_pressure;Samples;Min_cycle;Max_cycle;Signal;HPM_P1;HPM_P2
2021/12/11 00:00:14;;;;;;;89.25;52.83;;;;;;;0.46;100.00;100447.19;5093601;28;20031;-54
2021/12/11 00:02:41;;;;;;;89.30;51.55;;;;;;;0.43;100.00;100447.00;5093584;28;20361;-55
2021/12/11 00:05:07;;;;;;;90.70;52.40;;;;;;;0.38;100.00;100458.50;5094233;28;20020;-55
2021/12/11 00:07:34;;;;;;;87.88;52.05;;;;;;;0.36;100.00;100460.94;5092815;28;20073;-55
2021/12/11 00:10:26;;;;;;;89.88;53.13;;;;;;;0.42;100.00;100466.41;5093800;28;20031;-55
2021/12/11 00:12:59;;;;;;;87.38;50.30;;;;;;;0.32;100.00;100472.56;5093774;28;20532;-54
2021/12/11 00:15:32;;;;;;;94.00;51.72;;;;;;;0.32;100.00;100484.31;5093381;28;20118;-55
2021/12/11 00:18:06;;;;;;;91.38;52.35;;;;;;;0.36;100.00;100480.34;5093598;28;20051;-54
2021/12/11 00:20:34;;;;;;;86.95;50.00;;;;;;;0.30;100.00;100483.38;5093348;28;20138;-54
2021/12/11 00:23:00;;;;;;;77.00;49.15;;;;;;;0.28;100.00;100489.97;5093751;28;20073;-53
2021/12/11 00:25:26;;;;;;;87.63;50.17;;;;;;;0.26;100.00;100499.13;5093416;28;20051;-53
2021/12/11 00:28:06;;;;;;;100.28;53.08;;;;;;;0.26;100.00;100502.56;5093153;28;20324;-54
2021/12/11 00:30:43;;;;;;;94.18;53.20;;;;;;;0.25;100.00;100516.00;5093621;28;20039;-55
2021/12/11 00:33:14;;;;;;;107.57;58.92;;;;;;;0.24;100.00;100510.84;5093687;28;20058;-54
2021/12/11 00:35:41;;;;;;;113.88;60.97;;;;;;;0.20;100.00;100509.75;5093054;28;20023;-55
2021/12/11 00:38:15;;;;;;;116.00;61.05;;;;;;;0.22;100.00;100518.34;5093049;28;20162;-54
2021/12/11 00:40:43;;;;;;;112.35;57.42;;;;;;;0.16;100.00;100523.88;5093590;28;20150;-54
2021/12/11 00:43:15;;;;;;;123.68;60.65;;;;;;;0.15;100.00;100528.84;5093036;28;20028;-54
2021/12/11 00:45:41;;;;;;;111.10;57.75;;;;;;;0.12;100.00;100533.72;5093049;28;20029;-54
2021/12/11 00:48:14;;;;;;;114.18;56.85;;;;;;;0.11;100.00;100544.63;5093153;28;20025;-54
2021/12/11 00:50:47;;;;;;;105.40;57.42;;;;;;;0.13;100.00;100548.13;5092539;28;20024;-55
2021/12/11 00:53:21;;;;;;;99.28;53.78;;;;;;;0.10;100.00;100547.94;5093143;28;20035;-54
2021/12/11 00:55:51;;;;;;;108.15;56.53;;;;;;;0.07;100.00;100553.69;5092692;28;20031;-55
2021/12/11 00:58:29;;;;;;;96.70;54.38;;;;;;;0.05;100.00;100559.44;5092537;28;20543;-54
2021/12/11 01:01:07;;;;;;;93.18;53.13;;;;;;;0.02;100.00;100559.22;5093003;28;20024;-55
2021/12/11 01:03:58;;;;;;;93.55;55.30;;;;;;;0.02;100.00;100560.09;5092546;28;20035;-54
2021/12/11 01:06:39;;;;;;;107.55;55.83;;;;;;;-0.05;100.00;100566.41;5092850;28;20051;-55
2021/12/11 01:09:11;;;;;;;98.65;53.80;;;;;;;-0.11;100.00;100576.13;5092922;28;20483;-54
2021/12/11 01:11:43;;;;;;;97.93;52.00;;;;;;;-0.15;100.00;100571.63;5092222;28;20038;-54
2021/12/11 01:14:20;;;;;;;86.55;50.50;;;;;;;-0.27;100.00;100576.75;5092602;28;20035;-54
2021/12/11 01:16:56;;;;;;;62.30;30.33;;;;;;;-0.11;100.00;100577.78;5092458;28;20064;-55
2021/12/11 01:19:22;;;;;;;83.53;50.13;;;;;;;-0.31;100.00;100578.94;5092486;28;20035;-55
2021/12/11 01:21:59;;;;;;;86.07;53.00;;;;;;;-0.39;100.00;100591.97;5092694;28;20483;-53
2021/12/11 01:24:44;;;;;;;81.00;48.00;;;;;;;-0.42;100.00;100606.94;5092332;28;20459;-55
2021/12/11 01:27:20;;;;;;;93.03;52.25;;;;;;;-0.37;100.00;100608.13;5092619;28;20089;-54
2021/12/11 01:29:48;;;;;;;87.70;52.83;;;;;;;-0.51;100.00;100611.38;5092768;28;20471;-54
2021/12/11 01:32:15;;;;;;;91.63;53.03;;;;;;;-0.46;100.00;100621.81;5092296;28;20024;-55
2021/12/11 01:34:43;;;;;;;78.45;46.33;;;;;;;-0.46;100.00;100630.28;5092551;28;20024;-54
2021/12/11 01:37:09;;;;;;;77.60;43.25;;;;;;;-0.49;100.00;100632.63;5092761;28;20024;-54
2021/12/11 01:39:38;;;;;;;78.88;47.67;;;;;;;-0.55;100.00;100640.63;5092145;28;20044;-55
2021/12/11 01:42:11;;;;;;;82.50;47.67;;;;;;;-0.58;100.00;100644.59;5092540;28;20024;-55
2021/12/11 01:44:39;;;;;;;94.45;53.45;;;;;;;-0.55;100.00;100654.97;5092660;28;20028;-53
2021/12/11 01:47:10;;;;;;;86.13;51.70;;;;;;;-0.60;100.00;100658.81;5092486;28;20035;-54
2021/12/11 01:49:40;;;;;;;84.65;50.20;;;;;;;-0.63;100.00;100656.94;5092414;28;20123;-55
2021/12/11 01:52:19;;;;;;;85.90;50.75;;;;;;;-0.63;100.00;100666.16;5092046;28;20039;-54
2021/12/11 01:54:46;;;;;;;95.18;53.38;;;;;;;-0.65;100.00;100672.78;5092321;28;20024;-53
2021/12/11 01:57:14;;;;;;;;;;;;;;;-0.50;100.00;100684.00;5092679;28;20024;-55
2021/12/11 01:59:53;;;;;;;75.72;33.17;;;;;;;-0.57;100.00;100685.22;5092010;28;19919;-56
2021/12/11 02:02:27;;;;;;;98.38;51.67;;;;;;;-0.71;100.00;100699.41;5092288;28;20024;-54
2021/12/11 02:04:54;;;;;;;92.30;53.60;;;;;;;-0.65;100.00;100708.22;5092237;28;20028;-54
2021/12/11 02:07:27;;;;;;;100.57;54.35;;;;;;;-0.70;100.00;100705.34;5091884;28;20046;-54
2021/12/11 02:09:58;;;;;;;96.05;53.53;;;;;;;-0.67;100.00;100710.66;5092026;28;20528;-54
2021/12/11 02:12:32;;;;;;;104.97;56.25;;;;;;;-0.65;100.00;100716.69;5092475;28;20158;-53
2021/12/11 02:15:00;;;;;;;102.03;55.63;;;;;;;-0.66;100.00;100712.38;5091890;28;20047;-54
2021/12/11 02:17:30;;;;;;;105.88;57.28;;;;;;;-0.68;100.00;100709.75;5092153;28;20028;-54
2021/12/11 02:19:58;;;;;;;91.80;54.00;;;;;;;-0.79;100.00;100719.88;5092304;28;20039;-54
2021/12/11 02:22:31;;;;;;;91.03;51.95;;;;;;;-0.72;100.00;100735.63;5091739;28;20101;-54
2021/12/11 02:25:01;;;;;;;99.38;52.15;;;;;;;-0.75;100.00;100743.00;5092365;28;20100;-54
2021/12/11 02:27:32;;;;;;;89.90;51.90;;;;;;;-0.78;100.00;100742.75;5091753;28;20031;-52
2021/12/11 02:30:26;;;;;;;76.68;33.83;;;;;;;-0.64;100.00;100741.22;5093218;28;20047;-54
2021/12/11 02:33:29;;;;;;;76.95;32.38;;;;;;;-0.63;100.00;100742.09;5095738;28;20490;-54
2021/12/11 02:36:09;;;;;;;98.15;52.53;;;;;;;-0.70;100.00;100751.81;5013128;28;20429;-55
2021/12/11 02:39:05;;;;;;;104.63;54.30;;;;;;;-0.65;100.00;100759.72;5086110;28;20044;-54
2021/12/11 02:41:49;;;;;;;74.32;34.28;;;;;;;-0.57;100.00;100755.22;5095343;28;20027;-52
2021/12/11 02:44:28;;;;;;;98.45;54.95;;;;;;;-0.59;100.00;100764.38;5095596;28;20078;-54
2021/12/11 02:47:09;;;;;;;101.85;56.08;;;;;;;-0.58;100.00;100776.22;5095488;28;20383;-55
2021/12/11 02:49:59;;;;;;;81.93;32.55;;;;;;;-0.48;100.00;100765.13;5094841;28;20036;-54
2021/12/11 02:52:35;;;;;;;90.90;51.78;;;;;;;-0.56;100.00;100777.22;5095583;28;20148;-54
2021/12/11 02:55:20;;;;;;;93.82;53.63;;;;;;;-0.57;100.00;100772.94;5095401;28;20487;-55
2021/12/11 02:58:03;;;;;;;103.72;54.85;;;;;;;-0.51;100.00;100773.38;5094510;28;20103;-54
2021/12/11 03:00:40;;;;;;;94.47;53.90;;;;;;;-0.49;100.00;100779.44;5095536;28;20028;-54
2021/12/11 03:03:11;;;;;;;81.33;49.47;;;;;;;-0.52;100.00;100789.34;5094711;28;20054;-53
2021/12/11 03:05:45;;;;;;;87.78;48.53;;;;;;;-0.62;100.00;100794.50;5095050;28;20288;-54
2021/12/11 03:08:15;;;;;;;95.88;51.00;;;;;;;-0.67;100.00;100794.19;5095117;28;20028;-54
2021/12/11 03:10:44;;;;;;;95.13;52.25;;;;;;;-0.65;100.00;100800.22;5094345;28;20421;-54
2021/12/11 03:13:11;;;;;;;87.68;50.80;;;;;;;-0.64;100.00;100806.19;5094740;28;20047;-53
2021/12/11 03:15:36;;;;;;;81.80;49.58;;;;;;;-0.65;100.00;100805.28;5094911;28;20111;-54
2021/12/11 03:18:04;;;;;;;83.55;49.35;;;;;;;-0.65;100.00;100809.47;5094144;28;20120;-55
2021/12/11 03:20:31;;;;;;;88.32;49.78;;;;;;;-0.67;100.00;100812.75;5094381;28;20020;-55
2021/12/11 03:22:56;;;;;;;83.88;48.85;;;;;;;-0.66;100.00;100808.56;5094754;28;20026;-54
2021/12/11 03:25:25;;;;;;;79.40;47.10;;;;;;;-0.67;100.00;100822.03;5094198;28;20048;-53
2021/12/11 03:27:51;;;;;;;75.13;45.22;;;;;;;-0.70;100.00;100825.19;5094597;28;20024;-54
2021/12/11 03:30:29;;;;;;;83.22;46.70;;;;;;;-0.73;100.00;100829.16;5094755;28;20474;-55
2021/12/11 03:33:01;;;;;;;75.63;46.28;;;;;;;-0.74;100.00;100828.25;5094352;28;20488;-55
2021/12/11 03:35:27;;;;;;;77.53;47.80;;;;;;;-0.75;100.00;100838.25;5094859;28;20032;-54
2021/12/11 03:37:53;;;;;;;83.18;48.72;;;;;;;-0.78;100.00;100833.84;5094033;28;20032;-53
2021/12/11 03:40:20;;;;;;;77.38;48.35;;;;;;;-0.80;100.00;100830.34;5094304;28;20020;-54
2021/12/11 03:42:48;;;;;;;81.43;48.20;;;;;;;-0.78;100.00;100828.78;5094515;28;20028;-54
2021/12/11 03:45:21;;;;;;;;;;;;;;;-0.61;100.00;100840.16;5094286;28;20024;-54
2021/12/11 03:47:52;;;;;;;60.60;27.58;;;;;;;-0.63;100.00;100848.41;5094170;28;19964;-54
2021/12/11 03:50:19;;;;;;;78.97;46.92;;;;;;;-0.72;100.00;100841.91;5094508;28;20472;-53
2021/12/11 03:52:47;;;;;;;84.90;49.28;;;;;;;-0.72;100.00;100841.91;5093993;28;20032;-55
2021/12/11 03:55:17;;;;;;;84.53;46.72;;;;;;;-0.68;100.00;100846.44;5094073;28;20436;-54
2021/12/11 03:57:44;;;;;;;93.03;50.90;;;;;;;-0.67;100.00;100845.66;5094138;28;20043;-54
2021/12/11 04:00:14;;;;;;;90.47;51.55;;;;;;;-0.65;100.00;100845.78;5093770;28;20028;-54
2021/12/11 04:02:41;;;;;;;90.97;50.38;;;;;;;-0.64;100.00;100856.78;5094084;28;20051;-54
2021/12/11 04:05:08;;;;;;;99.70;54.17;;;;;;;-0.61;100.00;100852.81;5094280;28;20032;-54
2021/12/11 04:07:47;;;;;;;80.32;32.90;;;;;;;-0.53;100.00;100855.91;5093440;28;20055;-56
2021/12/11 04:10:15;;;;;;;113.75;57.05;;;;;;;-0.50;100.00;100854.50;5094012;28;20071;-54
2021/12/11 04:12:41;;;;;;;132.32;64.32;;;;;;;-0.39;100.00;100855.31;5093276;28;20044;-53
2021/12/11 04:15:09;;;;;;;143.15;65.70;;;;;;;-0.34;100.00;100864.13;5093595;28;20124;-54
2021/12/11 04:17:35;;;;;;;;;;;;;;;-0.28;100.00;100862.81;5094309;28;20020;-54
2021/12/11 04:20:05;;;;;;;93.15;35.00;;;;;;;-0.21;100.00;100875.16;5093253;28;19912;-54
2021/12/11 04:22:31;;;;;;;124.47;60.53;;;;;;;-0.19;100.00;100874.50;5093533;28;20028;-55
2021/12/11 04:24:57;;;;;;;154.05;67.13;;;;;;;-0.10;100.00;100884.41;5093441;28;20031;-54
2021/12/11 04:27:24;;;;;;;159.38;71.53;;;;;;;-0.06;100.00;100881.34;5093089;28;20490;-54
2021/12/11 04:29:51;;;;;;;170.07;71.63;;;;;;;0.04;100.00;100890.50;5093376;28;20509;-54
2021/12/11 04:32:19;;;;;;;173.07;72.60;;;;;;;0.12;100.00;100891.91;5093432;28;20379;-54
2021/12/11 04:34:44;;;;;;;;;;;;;;;0.18;100.00;100896.53;5093591;28;20027;-53
2021/12/11 04:37:17;;;;;;;113.53;37.00;;;;;;;0.25;100.00;100893.69;5092988;28;19912;-54
2021/12/11 04:39:46;;;;;;;173.60;70.32;;;;;;;0.31;100.00;100891.59;5093185;28;20467;-53
2021/12/11 04:42:29;;;;;;;182.93;75.20;;;;;;;0.37;100.00;100895.34;5092983;28;20383;-54
2021/12/11 04:44:54;;;;;;;185.52;75.63;;;;;;;0.44;100.00;100900.06;5093171;28;20032;-53
2021/12/11 04:47:34;;;;;;;177.27;76.53;;;;;;;0.51;100.00;100907.34;5093409;28;20016;-54
2021/12/11 04:50:07;;;;;;;195.77;73.88;;;;;;;0.53;100.00;100918.50;5092499;28;20032;-56
2021/12/11 04:52:34;;;;;;;170.15;71.07;;;;;;;0.56;100.00;100917.81;5092878;28;20074;-54
2021/12/11 04:57:55;;;;;;;183.93;74.55;;;;;;;0.64;100.00;100925.19;5092522;28;20044;-55
2021/12/11 05:06:13;;;;;;;172.38;71.38;;;;;;;0.77;100.00;100929.47;5092629;28;19964;-53
2021/12/11 05:11:34;;;;;;;178.43;72.88;;;;;;;0.85;100.00;100935.06;5093204;28;20093;-54
2021/12/11 05:14:00;;;;;;;175.70;73.57;;;;;;;0.89;100.00;100941.25;5092991;28;20069;-55
2021/12/11 05:16:25;;;;;;;171.73;70.78;;;;;;;0.90;100.00;100943.88;5092577;28;20035;-54
2021/12/11 05:18:51;;;;;;;168.25;70.13;;;;;;;0.92;100.00;100947.44;5092647;28;20032;-54
2021/12/11 05:21:18;;;;;;;161.25;66.60;;;;;;;0.95;100.00;100956.91;5092777;28;20391;-54
2021/12/11 05:23:47;;;;;;;166.90;67.45;;;;;;;0.95;100.00;100965.38;5092167;28;20459;-54
2021/12/11 05:26:13;;;;;;;156.68;64.28;;;;;;;0.99;100.00;100963.97;5092312;28;20055;-54
2021/12/11 05:28:39;;;;;;;167.25;68.68;;;;;;;1.00;100.00;100969.94;5092735;28;20407;-54
2021/12/11 05:31:07;;;;;;;151.30;63.38;;;;;;;1.02;100.00;100960.75;5092310;28;20031;-54
2021/12/11 05:33:34;;;;;;;167.20;67.75;;;;;;;1.00;100.00;100964.84;5092311;28;20063;-55
2021/12/11 05:36:01;;;;;;;159.57;65.82;;;;;;;1.03;100.00;100963.38;5092630;28;20028;-56
2021/12/11 05:38:26;;;;;;;152.03;64.10;;;;;;;1.02;100.00;100958.22;5092430;28;20032;-55
2021/12/11 05:40:59;;;;;;;152.93;66.40;;;;;;;1.01;100.00;100961.53;5092400;28;20379;-54
2021/12/11 05:43:25;;;;;;;157.93;63.60;;;;;;;1.02;100.00;100966.72;5092829;28;20024;-55
2021/12/11 05:45:51;;;;;;;145.75;62.28;;;;;;;1.05;100.00;100971.13;5091839;28;20028;-55
2021/12/11 05:48:17;;;;;;;151.07;62.80;;;;;;;1.06;100.00;100973.78;5092242;28;20028;-54
2021/12/11 05:50:46;;;;;;;150.45;64.25;;;;;;;1.08;100.00;100976.41;5092386;28;20380;-54
2021/12/11 05:53:12;;;;;;;151.82;65.93;;;;;;;1.10;100.00;100982.50;5091845;28;20051;-55
2021/12/11 05:55:39;;;;;;;162.63;67.05;;;;;;;1.12;100.00;100979.28;5092434;28;20475;-54
2021/12/11 05:58:11;;;;;;;155.82;69.40;;;;;;;1.15;100.00;100988.78;5091964;28;20036;-55
2021/12/11 06:00:41;;;;;;;159.60;67.00;;;;;;;1.16;100.00;100987.97;5092125;28;20031;-55
2021/12/11 06:03:07;;;;;;;149.18;62.83;;;;;;;1.19;100.00;100990.75;5092402;28;20123;-56
2021/12/11 06:05:33;;;;;;;157.75;63.97;;;;;;;1.21;100.00;100986.63;5093968;28;20032;-55
2021/12/11 06:07:59;;;;;;;157.15;65.28;;;;;;;1.21;100.00;100988.31;5096504;28;20039;-55
2021/12/11 06:10:25;;;;;;;146.95;63.85;;;;;;;1.22;100.00;100992.63;5096308;28;20024;-55
2021/12/11 06:12:53;;;;;;;161.90;64.82;;;;;;;1.24;100.00;100991.94;5095732;28;20051;-55
2021/12/11 06:15:20;;;;;;;161.05;63.78;;;;;;;1.26;100.00;101003.06;5095886;28;20024;-55
2021/12/11 06:17:46;;;;;;;155.20;65.22;;;;;;;1.29;100.00;101002.41;5096021;28;20036;-54
2021/12/11 06:20:18;;;;;;;148.27;62.92;;;;;;;1.27;100.00;101007.38;5095628;28;20139;-54
2021/12/11 06:22:43;;;;;;;147.35;63.47;;;;;;;1.27;100.00;101015.00;5095924;28;20032;-54
2021/12/11 06:25:18;;;;;;;145.77;62.08;;;;;;;1.29;100.00;101021.06;5095700;28;20024;-54
2021/12/11 06:27:44;;;;;;;148.65;62.63;;;;;;;1.31;100.00;101023.72;5095480;28;20118;-55
2021/12/11 06:30:11;;;;;;;166.80;68.93;;;;;;;1.34;100.00;101018.84;5095665;28;20106;-54
2021/12/11 06:32:36;;;;;;;163.60;71.68;;;;;;;1.37;100.00;101026.69;5095996;28;20028;-55
2021/12/11 06:35:13;;;;;;;156.90;68.13;;;;;;;1.43;100.00;101034.75;5095330;28;20039;-55
2021/12/11 06:37:38;;;;;;;175.27;76.28;;;;;;;1.48;100.00;101029.97;5095553;28;20023;-53
2021/12/11 06:40:05;;;;;;;162.82;68.47;;;;;;;1.54;100.00;101032.94;5095706;28;20495;-55
2021/12/11 06:42:31;;;;;;;186.57;70.70;;;;;;;1.52;100.00;101039.56;5094729;28;20028;-55
2021/12/11 06:44:57;;;;;;;168.90;73.00;;;;;;;1.57;100.00;101038.22;5095499;28;20433;-55
2021/12/11 06:47:22;;;;;;;173.20;69.90;;;;;;;1.58;100.00;101044.19;5095421;28;20544;-54
2021/12/11 06:49:48;;;;;;;171.48;70.20;;;;;;;1.62;100.00;101054.66;5095270;28;20038;-52
2021/12/11 06:52:19;;;;;;;170.25;68.45;;;;;;;1.64;100.00;101053.13;5095439;28;20421;-55
2021/12/11 06:54:45;;;;;;;173.27;70.43;;;;;;;1.67;100.00;101060.06;5094797;28;20047;-55
2021/12/11 06:57:10;;;;;;;181.25;74.32;;;;;;;1.69;100.00;101055.97;5095037;28;20024;-56
2021/12/11 06:59:36;;;;;;;184.98;72.65;;;;;;;1.73;100.00;101059.59;5095126;28;20035;-54
2021/12/11 07:02:02;;;;;;;178.85;71.45;;;;;;;1.73;100.00;101064.66;5094714;28;20027;-56
2021/12/11 07:04:27;;;;;;;193.70;74.28;;;;;;;1.74;100.00;101066.44;5095541;28;20051;-55
2021/12/11 07:06:54;;;;;;;181.10;73.65;;;;;;;1.77;100.00;101072.63;5095389;28;20111;-54
2021/12/11 07:09:22;;;;;;;181.18;73.30;;;;;;;1.79;100.00;101080.34;5094838;28;20020;-55
2021/12/11 07:11:50;;;;;;;182.80;74.05;;;;;;;1.80;100.00;101069.41;5094719;28;20020;-55
2021/12/11 07:14:17;;;;;;;181.57;74.85;;;;;;;1.79;100.00;101076.13;5095001;28;20483;-55
2021/12/11 07:16:44;;;;;;;171.50;75.72;;;;;;;1.83;100.00;101079.78;5093857;28;20024;-55
2021/12/11 07:19:10;;;;;;;191.00;77.00;;;;;;;1.84;100.00;101088.31;5095006;28;20035;-56
2021/12/11 07:21:36;;;;;;;183.60;75.80;;;;;;;1.84;100.00;101084.09;5095057;28;20361;-55
2021/12/11 07:24:05;;;;;;;172.40;74.35;;;;;;;1.88;100.00;101093.69;5094390;28;20031;-55
2021/12/11 07:26:33;;;;;;;173.30;75.68;;;;;;;1.90;100.00;101097.22;5094409;28;20111;-54
2021/12/11 07:29:03;;;;;;;170.18;75.10;;;;;;;1.95;100.00;101106.03;5095083;28;20028;-56
2021/12/11 07:31:29;;;;;;;169.52;72.60;;;;;;;1.98;100.00;101103.69;5094393;28;20043;-56
2021/12/11 07:33:54;;;;;;;157.68;74.10;;;;;;;2.05;100.00;101111.75;5094908;28;20475;-55
2021/12/11 07:36:21;;;;;;;147.73;70.80;;;;;;;2.08;100.00;101117.94;5094934;28;20376;-55
2021/12/11 07:38:46;;;;;;;139.05;66.57;;;;;;;2.13;100.00;101113.13;5093554;28;20378;-54
2021/12/11 07:41:14;;;;;;;135.23;66.65;;;;;;;2.16;100.00;101120.09;5094574;28;20649;-56
2021/12/11 07:43:41;;;;;;;132.63;65.88;;;;;;;2.19;100.00;101123.72;5093746;28;20028;-55
2021/12/11 07:46:09;;;;;;;129.52;66.45;;;;;;;2.22;100.00;101111.25;5094265;28;20034;-55
2021/12/11 07:48:35;;;;;;;118.25;59.70;;;;;;;2.22;100.00;101117.97;5094486;28;20085;-54
2021/12/11 07:51:00;;;;;;;107.68;58.17;;;;;;;2.25;100.00;101121.63;5093703;28;20028;-55
2021/12/11 07:53:26;;;;;;;102.40;56.50;;;;;;;2.29;100.00;101115.94;5093970;28;20035;-55
2021/12/11 07:55:53;;;;;;;98.30;53.20;;;;;;;2.33;100.00;101137.38;5093947;28;20027;-55
2021/12/11 07:58:19;;;;;;;86.32;49.05;;;;;;;2.38;100.00;101135.16;5093643;28;20028;-56
2021/12/11 08:00:46;;;;;;;79.15;43.45;;;;;;;2.44;100.00;101144.09;5093652;28;20031;-54
2021/12/11 08:03:13;;;;;;;76.93;42.88;;;;;;;2.51;100.00;101149.59;5093846;28;20020;-55
2021/12/11 08:05:40;;;;;;;70.07;36.38;;;;;;;2.58;100.00;101145.00;5093321;28;20032;-56
2021/12/11 08:08:06;;;;;;;63.53;35.20;;;;;;;2.60;100.00;101145.13;5093772;28;20028;-53
2021/12/11 08:10:33;;;;;;;57.00;32.30;;;;;;;2.62;100.00;101146.06;5094065;28;20024;-55
2021/12/11 08:13:00;;;;;;;52.72;29.42;;;;;;;2.70;100.00;101159.31;5093418;28;20055;-54
2021/12/11 08:15:26;;;;;;;50.70;26.88;;;;;;;2.76;100.00;101154.63;5093853;28;20023;-55
2021/12/11 08:17:54;;;;;;;46.13;25.17;;;;;;;2.80;100.00;101159.13;5093399;28;20032;-55
2021/12/11 08:20:22;;;;;;;45.90;25.23;;;;;;;2.83;100.00;101166.09;5093557;28;20028;-54
2021/12/11 08:22:47;;;;;;;;;;;;;;;2.88;100.00;101170.72;5093948;28;20134;-55
2021/12/11 08:25:12;;;;;;;42.60;23.37;;;;;;;2.84;100.00;101180.59;5093300;28;19961;-53
2021/12/11 08:27:38;;;;;;;43.28;22.70;;;;;;;2.86;100.00;101187.56;5092020;28;20775;-55
2021/12/11 08:30:05;;;;;;;42.75;23.13;;;;;;;2.86;100.00;101187.56;5093538;28;20020;-55
2021/12/11 08:32:30;;;;;;;50.83;22.57;;;;;;;2.91;100.00;101200.59;5093375;28;20031;-50
2021/12/11 08:34:57;;;;;;;51.42;22.08;;;;;;;2.95;100.00;101208.53;5092720;28;20024;-55
2021/12/11 08:37:23;;;;;;;47.40;22.42;;;;;;;3.01;100.00;101204.63;5093331;28;20016;-54
2021/12/11 08:39:49;;;;;;;41.42;21.75;;;;;;;3.07;100.00;101215.22;5093188;28;20042;-55
2021/12/11 08:42:18;;;;;;;45.30;21.15;;;;;;;3.12;100.00;101219.84;5093233;28;20051;-55
2021/12/11 08:44:50;;;;;;;39.63;20.77;;;;;;;3.18;100.00;101221.91;5093435;28;20031;-55
2021/12/11 08:47:21;;;;;;;43.13;19.90;;;;;;;3.20;100.00;101222.91;5092978;28;20020;-55
2021/12/11 08:49:49;;;;;;;39.47;20.00;;;;;;;3.25;100.00;101228.25;5092769;28;20043;-52
2021/12/11 08:52:21;;;;;;;42.67;19.30;;;;;;;3.28;100.00;101234.44;5093314;28;20036;-53
2021/12/11 08:54:48;;;;;;;42.80;18.83;;;;;;;3.31;100.00;101240.53;5092614;28;20032;-53
2021/12/11 08:57:21;;;;;;;35.08;17.73;;;;;;;3.36;100.00;101249.38;5092766;28;20475;-51
2021/12/11 08:59:50;;;;;;;34.13;15.73;;;;;;;3.40;100.00;101248.78;5092962;28;20031;-53
2021/12/11 09:02:22;;;;;;;32.75;13.68;;;;;;;3.48;100.00;101246.72;5092257;28;20059;-53
2021/12/11 09:04:58;;;;;;;28.58;13.20;;;;;;;3.56;100.00;101265.94;5092634;28;20456;-51
2021/12/11 09:07:32;;;;;;;30.27;13.48;;;;;;;3.63;100.00;101274.06;5093212;28;20024;-55
2021/12/11 09:10:03;;;;;;;32.35;12.25;;;;;;;3.70;100.00;101272.78;5091944;28;20058;-55
2021/12/11 09:12:36;;;;;;;31.17;11.68;;;;;;;3.78;100.00;101284.38;5092829;28;20016;-55
2021/12/11 09:15:27;;;;;;;30.85;10.25;;;;;;;3.86;100.00;101297.63;5092386;28;20023;-54
2021/12/11 09:18:00;;;;;;;22.35;10.00;;;;;;;3.91;100.00;101301.34;5081232;28;20529;-54
2021/12/11 09:20:37;;;;;;;23.40;9.98;;;;;;;4.00;100.00;101307.81;5092822;28;20024;-53
2021/12/11 09:23:16;;;;;;;26.73;9.70;;;;;;;4.04;100.00;101310.66;5092324;28;20028;-49
2021/12/11 09:25:47;;;;;;;28.42;10.02;;;;;;;4.12;100.00;101321.34;5092253;28;20492;-52
2021/12/11 09:28:42;;;;;;;31.15;10.43;;;;;;;4.28;100.00;101328.28;5092872;28;20059;-51
2021/12/11 09:31:17;;;;;;;28.23;10.57;;;;;;;4.32;100.00;101326.81;5084330;28;20036;-52
2021/12/11 09:33:59;;;;;;;22.88;10.80;;;;;;;4.39;100.00;101336.59;5092272;28;20028;-54
2021/12/11 09:36:35;;;;;;;28.25;12.48;;;;;;;4.37;100.00;101341.63;5092214;28;20032;-53
2021/12/11 09:39:08;;;;;;;22.75;11.95;;;;;;;4.42;100.00;101344.47;5093543;28;20107;-52
2021/12/11 09:41:33;;;;;;;32.35;13.30;;;;;;;4.44;100.00;101345.44;5096621;28;20024;-55
2021/12/11 09:44:17;;;;;;;32.25;15.23;;;;;;;4.49;100.00;101356.81;5096007;28;20089;-54
2021/12/11 09:46:46;;;;;;;30.10;14.85;;;;;;;4.53;100.00;101363.00;5096561;28;20040;-55
2021/12/11 09:49:19;;;;;;;30.30;15.93;;;;;;;4.53;100.00;101374.13;5096571;28;20115;-54
2021/12/11 09:51:46;;;;;;;35.33;17.30;;;;;;;4.58;100.00;101375.28;5095579;28;20523;-54
2021/12/11 09:54:23;;;;;;;32.33;17.73;;;;;;;4.61;100.00;101378.00;5096284;28;20035;-55
2021/12/11 09:56:53;;;;;;;29.70;17.60;;;;;;;4.65;100.00;101375.63;5096480;28;20028;-54
2021/12/11 09:59:22;;;;;;;31.92;17.48;;;;;;;4.67;100.00;101379.19;5095572;28;20056;-54
2021/12/11 10:01:52;;;;;;;33.67;19.30;;;;;;;4.69;100.00;101390.38;5096295;28;20077;-54
2021/12/11 10:04:28;;;;;;;32.30;19.00;;;;;;;4.71;100.00;101388.78;5095836;28;20111;-54
2021/12/11 10:09:34;;;;;;;35.78;22.65;;;;;;;4.64;100.00;101390.09;5096413;28;20429;-55
2021/12/11 10:12:07;;;;;;;44.72;25.65;;;;;;;4.51;100.00;101398.66;5095737;28;20028;-54
2021/12/11 10:14:41;;;;;;;48.17;27.30;;;;;;;4.45;100.00;101399.16;5095891;28;20056;-54
2021/12/11 10:17:14;;;;;;;48.00;28.90;;;;;;;4.36;100.00;101408.75;5095997;28;20032;-55
2021/12/11 10:19:42;;;;;;;49.33;29.60;;;;;;;4.29;100.00;101411.72;5095354;28;20036;-54
2021/12/11 10:22:36;;;;;;;49.15;30.50;;;;;;;4.27;100.00;101416.72;5095914;28;20028;-56
2021/12/11 10:25:05;;;;;;;49.10;31.00;;;;;;;4.37;100.00;101430.06;5091458;28;20119;-55
2021/12/11 10:27:31;;;;;;;56.53;31.27;;;;;;;4.44;100.00;101429.66;5094924;28;20483;-56
2021/12/11 10:30:00;;;;;;;54.95;30.55;;;;;;;4.54;100.00;101432.00;5095532;28;20043;-56
2021/12/11 10:32:29;;;;;;;53.08;30.75;;;;;;;4.61;100.00;101435.88;5095395;28;20032;-55
2021/12/11 10:34:58;;;;;;;44.40;29.67;;;;;;;4.61;100.00;101434.19;5095567;28;20475;-53
2021/12/11 10:37:33;;;;;;;50.50;28.73;;;;;;;4.66;100.00;101439.59;5095614;28;20081;-56
2021/12/11 10:40:03;;;;;;;51.85;29.65;;;;;;;4.72;100.00;101439.09;5095025;28;20024;-55
2021/12/11 10:42:29;;;;;;;49.08;29.75;;;;;;;4.70;100.00;101438.09;5095320;28;20028;-53
2021/12/11 10:44:58;;;;;;;45.50;29.95;;;;;;;4.77;100.00;101442.81;5095659;28;20110;-55
2021/12/11 10:47:33;;;;;;;49.65;29.50;;;;;;;4.81;100.00;101439.66;5095125;28;20115;-55
2021/12/11 10:50:00;;;;;;;52.70;30.23;;;;;;;4.84;100.00;101450.06;5094800;28;20024;-55
2021/12/11 10:52:29;;;;;;;52.08;30.38;;;;;;;4.99;100.00;101451.81;5094927;28;20036;-54
2021/12/11 10:54:58;;;;;;;46.70;29.52;;;;;;;5.10;100.00;101458.47;5094691;28;20047;-54
2021/12/11 10:57:24;;;;;;;47.60;29.52;;;;;;;5.20;100.00;101455.69;5095234;28;20406;-55
2021/12/11 10:59:53;;;;;;;42.45;27.25;;;;;;;5.39;99.63;101461.91;5095123;28;20070;-51
2021/12/11 11:02:27;;;;;;;47.70;27.48;;;;;;;5.58;98.47;101469.91;5094539;28;20028;-55
2021/12/11 11:04:59;;;;;;;38.05;25.63;;;;;;;5.64;98.14;101471.06;5095087;28;20020;-54
2021/12/11 11:07:27;;;;;;;43.70;24.63;;;;;;;5.71;97.57;101475.75;5095147;28;20074;-55
2021/12/11 11:09:54;;;;;;;37.15;24.00;;;;;;;6.07;97.24;101481.31;5094407;28;20031;-55
2021/12/11 11:12:27;;;;;;;37.30;23.80;;;;;;;6.46;96.07;101474.13;5094962;28;20395;-54
2021/12/11 11:14:53;;;;;;;39.08;21.92;;;;;;;6.70;94.46;101482.31;5094276;28;20752;-53
2021/12/11 11:17:23;;;;;;;33.35;20.17;;;;;;;6.78;93.72;101495.53;5094652;28;20048;-55
2021/12/11 11:19:50;;;;;;;31.00;17.70;;;;;;;6.88;93.21;101497.81;5094642;28;20176;-53
2021/12/11 11:22:22;;;;;;;28.25;15.65;;;;;;;7.00;91.66;101506.97;5094521;28;20020;-55
2021/12/11 11:25:04;;;;;;;25.33;15.50;;;;;;;6.92;91.96;101502.31;5094582;28;20035;-54
2021/12/11 11:27:30;;;;;;;23.25;12.38;;;;;;;6.82;91.47;101506.84;5094618;28;20388;-55
2021/12/11 11:29:55;;;;;;;20.20;11.63;;;;;;;6.73;91.49;101508.06;5093840;28;20020;-56
2021/12/11 11:32:31;;;;;;;23.00;11.93;;;;;;;6.73;91.67;101513.19;5094613;28;20016;-55
2021/12/11 11:35:02;;;;;;;19.35;9.68;;;;;;;6.72;91.54;101514.00;5094640;28;20024;-55